Alanson, Michigan
Current Conditions -  °F | °C
As of 11:14 AM on Wednesday 28 Jan 2015 (Local Time) from KMGN Reporting Station
Clear Clear  
Wind Chill: 19°   Ceiling: Unl
Heat Index: 19°   Visibility: 10mi
Dew Point:   Wind: 0mph
Humidity: 59%   Direction: NA
Pressure: 30.25"   Gusts: NA
Location:  45.44°N, 84.79°W
Report Text: KMGN 281614Z AUTO 00000KT 10SM CLR M07/M13 A3025 RMK AO2 T10701137
Loading
Personal Weather Stations






























Interactive Weather Map New forecast layout! Learn more

10-Day Weather Forecast

Advertisements
Track Severe Weather on mobile